Time;durP1;ratioP1;P1;durP2;ratioP2;P2;SDS_P1;SDS_P2;PMS_P1;PMS_P2;Temp;Humidity;BMP_temperature;BMP_pressure;BME280_temperature;BME280_humidity;BME280_pressure;Samples;Min_cycle;Max_cycle;Signal;HPM_P1;HPM_P2
2023/03/29 00:01:52;;;;;;;;;;;12.90;99.90;;;;;;5140739;27;19914;-58
2023/03/29 00:04:21;;;;;;;;;;;13.10;99.90;;;;;;5140737;27;20358;-59
2023/03/29 00:06:46;;;;;;;;;;;12.90;99.90;;;;;;5140739;27;19914;-58
2023/03/29 00:09:13;;;;;;;;;;;12.90;99.90;;;;;;5140924;27;19907;-59
2023/03/29 00:11:39;;;;;;;;;;;12.90;99.90;;;;;;5140496;27;19947;-57
2023/03/29 00:14:04;;;;;;;;;;;12.90;99.90;;;;;;5140596;27;19914;-58
2023/03/29 00:16:30;;;;;;;;;;;12.90;99.90;;;;;;5140523;27;19911;-57
2023/03/29 00:18:56;;;;;;;;;;;12.90;99.90;;;;;;5140374;27;19934;-58
2023/03/29 00:21:21;;;;;;;;;;;12.80;99.90;;;;;;5140296;27;19961;-58
2023/03/29 00:23:47;;;;;;;;;;;12.90;99.90;;;;;;5140189;27;19991;-58
2023/03/29 00:26:12;;;;;;;;;;;12.80;99.90;;;;;;5140195;27;19920;-58
2023/03/29 00:28:38;;;;;;;;;;;12.80;99.90;;;;;;5140168;27;19908;-58
2023/03/29 00:31:08;;;;;;;;;;;12.80;99.90;;;;;;5140135;27;20368;-58
2023/03/29 00:33:34;;;;;;;;;;;12.90;99.90;;;;;;5140002;27;20361;-58
2023/03/29 00:36:00;;;;;;;;;;;12.80;99.90;;;;;;5140182;27;19914;-57
2023/03/29 00:38:26;;;;;;;;;;;12.80;99.90;;;;;;5140007;27;19947;-58
2023/03/29 00:40:52;;;;;;;;;;;12.60;99.90;;;;;;5140121;27;20366;-56
2023/03/29 00:43:17;;;;;;;;;;;12.70;99.90;;;;;;5139864;27;19998;-59
2023/03/29 00:45:43;;;;;;;;;;;12.70;99.90;;;;;;5139946;27;19911;-59
2023/03/29 00:48:12;;;;;;;;;;;12.70;99.90;;;;;;5139934;27;19914;-58
2023/03/29 00:50:44;;;;;;;;;;;12.70;99.90;;;;;;5121435;27;19915;-59
2023/03/29 00:53:22;;;;;;;;;;;12.60;99.90;;;;;;5139817;27;19913;-58
2023/03/29 00:55:53;;;;;;;;;;;12.70;99.90;;;;;;5140022;27;19942;-58
2023/03/29 00:58:23;;;;;;;;;;;12.70;99.90;;;;;;5139779;27;19965;-58
2023/03/29 01:00:51;;;;;;;;;;;12.60;99.90;;;;;;5139391;27;20290;-58
2023/03/29 01:03:23;;;;;;;;;;;12.60;99.90;;;;;;5139550;27;19907;-58
2023/03/29 01:05:52;;;;;;;;;;;12.70;99.90;;;;;;5139222;27;19954;-58
2023/03/29 01:08:24;;;;;;;;;;;12.70;99.90;;;;;;5139880;27;19911;-58
2023/03/29 01:11:01;;;;;;;;;;;12.60;99.90;;;;;;5139379;27;19915;-58
2023/03/29 01:13:33;;;;;;;;;;;12.60;99.90;;;;;;5139555;27;19914;-58
2023/03/29 01:15:59;;;;;;;;;;;12.70;99.90;;;;;;5139292;27;19932;-57
2023/03/29 01:18:25;;;;;;;;;;;12.60;99.90;;;;;;5139171;27;19996;-58
2023/03/29 01:21:06;;;;;;;;;;;12.70;99.90;;;;;;5139396;27;19912;-58
2023/03/29 01:23:32;;;;;;;;;;;12.70;99.90;;;;;;5139357;27;20376;-58
2023/03/29 01:26:12;;;;;;;;;;;12.60;99.90;;;;;;5139118;27;19959;-57
2023/03/29 01:28:42;;;;;;;;;;;12.60;99.90;;;;;;5139100;27;19908;-58
2023/03/29 01:31:10;;;;;;;;;;;12.60;99.90;;;;;;5139591;27;20303;-58
2023/03/29 01:33:39;;;;;;;;;;;12.60;99.90;;;;;;5138969;27;20334;-58
2023/03/29 01:36:08;;;;;;;;;;;12.60;99.90;;;;;;5139183;27;19907;-58
2023/03/29 01:38:38;;;;;;;;;;;12.60;99.90;;;;;;5139076;27;19908;-58
2023/03/29 01:41:04;;;;;;;;;;;12.50;99.90;;;;;;5139448;27;19998;-57
2023/03/29 01:43:40;;;;;;;;;;;12.60;99.90;;;;;;5139133;28;19950;-58
2023/03/29 01:46:10;;;;;;;;;;;12.60;99.90;;;;;;5141334;27;19968;-58
2023/03/29 01:48:35;;;;;;;;;;;12.70;99.90;;;;;;5145974;27;19907;-58
2023/03/29 01:51:04;;;;;;;;;;;12.70;99.90;;;;;;5145762;27;19959;-58
2023/03/29 01:53:53;;;;;;;;;;;12.70;99.90;;;;;;5145869;27;19908;-58
2023/03/29 01:56:21;;;;;;;;;;;12.70;99.90;;;;;;5134650;27;19907;-58
2023/03/29 01:58:52;;;;;;;;;;;12.60;99.90;;;;;;5145369;27;20293;-58
2023/03/29 02:01:24;;;;;;;;;;;12.60;99.90;;;;;;5145919;27;19913;-59
2023/03/29 02:03:53;;;;;;;;;;;12.70;99.90;;;;;;5145470;27;19914;-58
2023/03/29 02:06:21;;;;;;;;;;;12.60;99.90;;;;;;5145828;27;19907;-58
2023/03/29 02:08:47;;;;;;;;;;;12.60;99.90;;;;;;5145910;27;19908;-58
2023/03/29 02:11:12;;;;;;;;;;;12.60;99.90;;;;;;5145769;27;19961;-59
2023/03/29 02:13:38;;;;;;;;;;;12.50;99.90;;;;;;5145719;27;20426;-58
2023/03/29 02:16:13;;;;;;;;;;;12.60;99.90;;;;;;5145938;27;20389;-59
2023/03/29 02:18:40;;;;;;;;;;;12.60;99.90;;;;;;5145850;27;19911;-58
2023/03/29 02:21:06;;;;;;;;;;;12.80;99.90;;;;;;5145562;27;19907;-58
2023/03/29 02:23:34;;;;;;;;;;;12.70;99.90;;;;;;5145903;27;19907;-58
2023/03/29 02:26:00;;;;;;;;;;;12.60;99.90;;;;;;5145253;27;19926;-58
2023/03/29 02:28:27;;;;;;;;;;;12.60;99.90;;;;;;5145649;27;19907;-58
2023/03/29 02:30:55;;;;;;;;;;;12.60;99.90;;;;;;5145379;27;19907;-58
2023/03/29 02:33:24;;;;;;;;;;;12.60;99.90;;;;;;5145490;27;19912;-58
2023/03/29 02:36:01;;;;;;;;;;;12.60;99.90;;;;;;5145507;27;19929;-58
2023/03/29 02:38:28;;;;;;;;;;;12.60;99.90;;;;;;5145127;27;19908;-59
2023/03/29 02:40:55;;;;;;;;;;;12.60;99.90;;;;;;5145037;27;19946;-57
2023/03/29 02:43:22;;;;;;;;;;;12.60;99.90;;;;;;5145363;27;19914;-59
2023/03/29 02:45:48;;;;;;;;;;;12.60;99.90;;;;;;5145263;27;20488;-58
2023/03/29 02:48:16;;;;;;;;;;;12.60;99.90;;;;;;5145402;27;19907;-58
2023/03/29 02:50:43;;;;;;;;;;;12.60;99.90;;;;;;5145159;27;19914;-58
2023/03/29 02:53:15;;;;;;;;;;;12.60;99.90;;;;;;5145291;27;19950;-58
2023/03/29 02:55:40;;;;;;;;;;;12.60;99.90;;;;;;5145281;27;19915;-59
2023/03/29 02:58:07;;;;;;;;;;;12.60;99.90;;;;;;5142300;27;19907;-58
2023/03/29 03:00:37;;;;;;;;;;;12.50;99.90;;;;;;5141606;27;19915;-58
2023/03/29 03:03:06;;;;;;;;;;;12.60;99.90;;;;;;5141467;27;19907;-58
2023/03/29 03:05:32;;;;;;;;;;;12.60;99.90;;;;;;5141608;27;19914;-59
2023/03/29 03:07:58;;;;;;;;;;;12.60;99.90;;;;;;5141600;27;19947;-59
2023/03/29 03:10:23;;;;;;;;;;;12.60;99.90;;;;;;5141778;27;19907;-58
2023/03/29 03:12:49;;;;;;;;;;;12.60;99.90;;;;;;5141852;27;19915;-59
2023/03/29 03:15:14;;;;;;;;;;;12.50;99.90;;;;;;5141612;27;19928;-59
2023/03/29 03:17:40;;;;;;;;;;;12.50;99.90;;;;;;5141483;27;19912;-57
2023/03/29 03:20:11;;;;;;;;;;;12.50;99.90;;;;;;5141614;27;19911;-58
2023/03/29 03:22:42;;;;;;;;;;;12.60;99.90;;;;;;5141771;27;19930;-58
2023/03/29 03:25:11;;;;;;;;;;;12.60;99.90;;;;;;5141252;27;20379;-59
2023/03/29 03:27:37;;;;;;;;;;;12.50;99.90;;;;;;5140971;27;19919;-58
2023/03/29 03:30:04;;;;;;;;;;;12.50;99.90;;;;;;5141769;27;19937;-58
2023/03/29 03:32:31;;;;;;;;;;;12.50;99.90;;;;;;5141418;27;19907;-57
2023/03/29 03:34:57;;;;;;;;;;;12.50;99.90;;;;;;5141009;27;20390;-58
2023/03/29 03:37:23;;;;;;;;;;;12.50;99.90;;;;;;5141618;27;20354;-59
2023/03/29 03:39:49;;;;;;;;;;;12.60;99.90;;;;;;5141099;27;19911;-58
2023/03/29 03:42:14;;;;;;;;;;;12.50;99.90;;;;;;5141256;27;19908;-58
2023/03/29 03:44:40;;;;;;;;;;;12.40;99.90;;;;;;5140891;27;20010;-58
2023/03/29 03:47:06;;;;;;;;;;;12.40;99.90;;;;;;5141778;27;19980;-57
2023/03/29 03:49:32;;;;;;;;;;;12.40;99.90;;;;;;5141390;27;19915;-57
2023/03/29 03:51:58;;;;;;;;;;;12.40;99.90;;;;;;5140871;27;20023;-57
2023/03/29 03:54:23;;;;;;;;;;;12.40;99.90;;;;;;5141172;27;20326;-59
2023/03/29 03:56:49;;;;;;;;;;;13.50;99.90;;;;;;5141335;27;19990;-59
2023/03/29 03:59:14;;;;;;;;;;;12.40;99.90;;;;;;5140834;27;19999;-58
2023/03/29 04:01:44;;;;;;;;;;;12.30;99.90;;;;;;5140922;27;19907;-58
2023/03/29 04:04:10;;;;;;;;;;;12.30;99.90;;;;;;5140863;27;19908;-59
2023/03/29 04:06:36;;;;;;;;;;;12.40;99.90;;;;;;5140954;27;19907;-58
2023/03/29 04:09:02;;;;;;;;;;;12.30;99.90;;;;;;5140376;27;19994;-58
2023/03/29 04:11:28;;;;;;;;;;;12.20;99.90;;;;;;5140321;27;20337;-58
2023/03/29 04:13:54;;;;;;;;;;;12.30;99.90;;;;;;5140395;27;19952;-58
2023/03/29 04:16:19;;;;;;;;;;;12.30;99.90;;;;;;5140645;27;19963;-58
2023/03/29 04:18:45;;;;;;;;;;;12.30;99.90;;;;;;5140785;27;19997;-58
2023/03/29 04:21:11;;;;;;;;;;;12.40;99.90;;;;;;5140252;27;19911;-58
2023/03/29 04:23:37;;;;;;;;;;;12.20;99.90;;;;;;5140429;27;19918;-59
2023/03/29 04:26:02;;;;;;;;;;;12.20;99.90;;;;;;5140206;27;19923;-58
2023/03/29 04:28:28;;;;;;;;;;;12.20;99.90;;;;;;5140138;27;19908;-59
2023/03/29 04:30:54;;;;;;;;;;;12.10;99.90;;;;;;5140248;27;19908;-58
2023/03/29 04:33:20;;;;;;;;;;;12.10;99.90;;;;;;5140255;27;19914;-58
2023/03/29 04:35:45;;;;;;;;;;;12.00;99.90;;;;;;5139793;27;20354;-58
2023/03/29 04:38:11;;;;;;;;;;;12.20;99.90;;;;;;5140129;27;19987;-58
2023/03/29 04:40:37;;;;;;;;;;;12.00;99.90;;;;;;5140037;27;19933;-58
2023/03/29 04:43:03;;;;;;;;;;;11.80;99.90;;;;;;5140089;27;20395;-58
2023/03/29 04:45:28;;;;;;;;;;;12.00;99.90;;;;;;5139851;27;20423;-58
2023/03/29 04:48:00;;;;;;;;;;;11.80;99.90;;;;;;5121258;27;20014;-58
2023/03/29 04:50:26;;;;;;;;;;;11.80;99.90;;;;;;5139883;27;19943;-58
2023/03/29 04:52:52;;;;;;;;;;;11.80;99.90;;;;;;5121266;27;19915;-59
2023/03/29 04:55:17;;;;;;;;;;;11.70;99.90;;;;;;5139944;27;20374;-57
2023/03/29 04:57:43;;;;;;;;;;;11.70;99.90;;;;;;5139622;27;19954;-58
2023/03/29 05:00:16;;;;;;;;;;;11.80;99.90;;;;;;5139628;27;19912;-59
2023/03/29 05:02:42;;;;;;;;;;;11.60;99.90;;;;;;5139722;27;19950;-58
2023/03/29 05:05:09;;;;;;;;;;;11.60;99.90;;;;;;5139289;27;20296;-58
2023/03/29 05:07:35;;;;;;;;;;;11.50;99.90;;;;;;5139319;27;19934;-59
2023/03/29 05:10:00;;;;;;;;;;;11.50;99.90;;;;;;5139292;27;19908;-58
2023/03/29 05:12:26;;;;;;;;;;;11.60;99.90;;;;;;5138810;27;19907;-58
2023/03/29 05:14:52;;;;;;;;;;;11.50;99.90;;;;;;5139425;27;19915;-58
2023/03/29 05:17:17;;;;;;;;;;;11.50;99.90;;;;;;5139310;27;20366;-57
2023/03/29 05:19:43;;;;;;;;;;;11.50;99.90;;;;;;5139396;27;19911;-58
2023/03/29 05:22:09;;;;;;;;;;;11.40;99.90;;;;;;5138687;27;20006;-58
2023/03/29 05:24:34;;;;;;;;;;;11.60;99.90;;;;;;5139252;27;19907;-59
2023/03/29 05:27:01;;;;;;;;;;;11.40;99.90;;;;;;5139075;27;19927;-58
2023/03/29 05:29:26;;;;;;;;;;;11.40;99.90;;;;;;5139020;27;20338;-58
2023/03/29 05:31:52;;;;;;;;;;;11.40;99.90;;;;;;5139338;27;19930;-58
2023/03/29 05:34:18;;;;;;;;;;;11.40;99.90;;;;;;5139445;27;20433;-58
2023/03/29 05:36:44;;;;;;;;;;;11.40;99.90;;;;;;5139096;27;19911;-56
2023/03/29 05:39:10;;;;;;;;;;;11.40;99.90;;;;;;5139045;28;20399;-58
2023/03/29 05:41:35;;;;;;;;;;;11.40;99.90;;;;;;5139441;27;19908;-58
2023/03/29 05:44:01;;;;;;;;;;;11.30;99.90;;;;;;5138909;27;19999;-59
2023/03/29 05:46:27;;;;;;;;;;;11.30;99.90;;;;;;5138970;28;19908;-58
2023/03/29 05:48:52;;;;;;;;;;;11.30;99.90;;;;;;5138975;28;19908;-57
2023/03/29 05:51:21;;;;;;;;;;;11.30;99.90;;;;;;5138993;28;19907;-58
2023/03/29 05:53:46;;;;;;;;;;;11.30;99.90;;;;;;5138635;28;20348;-57
2023/03/29 05:56:14;;;;;;;;;;;11.30;99.90;;;;;;5138834;28;19907;-59
2023/03/29 05:58:40;;;;;;;;;;;11.30;99.90;;;;;;5138468;28;19908;-57
2023/03/29 06:01:09;;;;;;;;;;;11.30;99.90;;;;;;5138984;28;19915;-58
2023/03/29 06:03:35;;;;;;;;;;;11.30;99.90;;;;;;5138884;28;19907;-57
2023/03/29 06:06:02;;;;;;;;;;;11.30;99.90;;;;;;5138762;28;19919;-58
2023/03/29 06:08:28;;;;;;;;;;;11.40;99.90;;;;;;5138881;28;19908;-58
2023/03/29 06:10:59;;;;;;;;;;;11.40;99.90;;;;;;5138682;28;19907;-58
2023/03/29 06:13:26;;;;;;;;;;;11.40;99.90;;;;;;5138656;28;19914;-58
2023/03/29 06:15:51;;;;;;;;;;;11.40;99.90;;;;;;5138692;28;19912;-58
2023/03/29 06:18:17;;;;;;;;;;;11.30;99.90;;;;;;5138590;28;19915;-58
2023/03/29 06:20:46;;;;;;;;;;;11.40;99.90;;;;;;5138225;28;19912;-58
2023/03/29 06:23:12;;;;;;;;;;;11.30;99.90;;;;;;5120141;28;19914;-58
2023/03/29 06:25:38;;;;;;;;;;;11.40;99.90;;;;;;5138204;28;19907;-58
2023/03/29 06:28:04;;;;;;;;;;;11.40;99.90;;;;;;5138567;28;19908;-58
2023/03/29 06:30:30;;;;;;;;;;;11.40;99.90;;;;;;5138675;28;19911;-59
2023/03/29 06:32:57;;;;;;;;;;;11.50;99.90;;;;;;5140518;27;19957;-58
2023/03/29 06:35:23;;;;;;;;;;;11.40;99.90;;;;;;5142409;27;19952;-57
2023/03/29 06:37:48;;;;;;;;;;;11.50;99.90;;;;;;5142382;27;19908;-57
2023/03/29 06:40:18;;;;;;;;;;;11.50;99.90;;;;;;5142099;27;19915;-57
2023/03/29 06:42:44;;;;;;;;;;;11.50;99.90;;;;;;5142443;27;19957;-58
2023/03/29 06:45:10;;;;;;;;;;;11.60;99.90;;;;;;5142276;27;19907;-57
2023/03/29 06:47:36;;;;;;;;;;;11.60;99.90;;;;;;5142510;27;19907;-59
2023/03/29 06:50:01;;;;;;;;;;;11.50;99.90;;;;;;5141709;27;19937;-58
2023/03/29 06:52:27;;;;;;;;;;;11.60;99.90;;;;;;5141702;27;19925;-58
2023/03/29 06:54:53;;;;;;;;;;;11.50;99.90;;;;;;5142307;27;19908;-58
2023/03/29 06:57:18;;;;;;;;;;;11.50;99.90;;;;;;5141939;27;20007;-58
2023/03/29 06:59:44;;;;;;;;;;;11.50;99.90;;;;;;5141763;27;19987;-56
2023/03/29 07:02:12;;;;;;;;;;;11.50;99.90;;;;;;5142057;27;19908;-58
2023/03/29 07:04:40;;;;;;;;;;;11.50;99.90;;;;;;5141954;27;20362;-58
2023/03/29 07:07:10;;;;;;;;;;;11.50;99.90;;;;;;5141897;27;19986;-58
2023/03/29 07:09:38;;;;;;;;;;;11.60;99.90;;;;;;5141526;27;19982;-58
2023/03/29 07:12:04;;;;;;;;;;;11.70;99.90;;;;;;5141397;27;19978;-59
2023/03/29 07:14:30;;;;;;;;;;;11.90;99.90;;;;;;5142055;27;20351;-59
2023/03/29 07:16:57;;;;;;;;;;;12.00;99.90;;;;;;5141730;27;20362;-59
2023/03/29 07:19:24;;;;;;;;;;;12.00;99.90;;;;;;5141348;27;19933;-58
2023/03/29 07:21:50;;;;;;;;;;;12.10;99.90;;;;;;5141609;27;19968;-57
2023/03/29 07:24:16;;;;;;;;;;;12.20;99.90;;;;;;5141417;27;19956;-58
2023/03/29 07:26:41;;;;;;;;;;;12.30;99.90;;;;;;5141209;27;19927;-57
2023/03/29 07:29:08;;;;;;;;;;;12.40;99.90;;;;;;5141247;27;19956;-58
2023/03/29 07:31:35;;;;;;;;;;;12.50;99.90;;;;;;5141139;27;19908;-58
2023/03/29 07:34:02;;;;;;;;;;;12.50;99.90;;;;;;5140931;27;19998;-58
2023/03/29 07:36:27;;;;;;;;;;;12.60;99.90;;;;;;5141357;27;20021;-57
2023/03/29 07:38:55;;;;;;;;;;;12.60;99.90;;;;;;5141183;27;19919;-58
2023/03/29 07:41:21;;;;;;;;;;;12.70;99.90;;;;;;5140970;27;19914;-58
2023/03/29 07:43:47;;;;;;;;;;;12.70;99.90;;;;;;5139888;27;19907;-58
2023/03/29 07:46:12;;;;;;;;;;;12.70;99.90;;;;;;5141427;27;19943;-58
2023/03/29 07:48:38;;;;;;;;;;;12.60;99.90;;;;;;5140550;27;20432;-58
2023/03/29 07:51:04;;;;;;;;;;;12.70;99.90;;;;;;5140939;27;19939;-59
2023/03/29 07:53:31;;;;;;;;;;;12.70;99.90;;;;;;5140799;27;19907;-57
2023/03/29 07:55:56;;;;;;;;;;;12.60;99.90;;;;;;5140712;27;19939;-59
2023/03/29 07:58:22;;;;;;;;;;;12.60;99.90;;;;;;5140687;27;19915;-58
2023/03/29 08:00:48;;;;;;;;;;;12.60;99.90;;;;;;5122141;27;19961;-58
2023/03/29 08:03:13;;;;;;;;;;;12.70;99.90;;;;;;5140427;27;19994;-58
2023/03/29 08:05:39;;;;;;;;;;;12.60;99.90;;;;;;5141007;27;20010;-59
2023/03/29 08:08:05;;;;;;;;;;;12.70;99.90;;;;;;5140351;27;19907;-58
2023/03/29 08:10:33;;;;;;;;;;;12.60;99.90;;;;;;5140678;27;19918;-59
2023/03/29 08:12:59;;;;;;;;;;;12.50;99.90;;;;;;5140230;27;19914;-58
2023/03/29 08:15:25;;;;;;;;;;;12.70;99.90;;;;;;5140266;27;19907;-58
2023/03/29 08:17:50;;;;;;;;;;;12.70;99.90;;;;;;5140211;27;19907;-59
2023/03/29 08:20:16;;;;;;;;;;;12.80;99.90;;;;;;5140115;27;19964;-59
2023/03/29 08:22:42;;;;;;;;;;;12.90;99.90;;;;;;5140380;27;19911;-59
2023/03/29 08:25:08;;;;;;;;;;;12.90;99.90;;;;;;5140336;27;20304;-59
2023/03/29 08:27:34;;;;;;;;;;;13.10;99.90;;;;;;5139824;27;19970;-59
2023/03/29 08:29:59;;;;;;;;;;;13.00;99.90;;;;;;5140323;27;19907;-59
2023/03/29 08:32:25;;;;;;;;;;;13.10;99.90;;;;;;5139936;27;19908;-59
2023/03/29 08:34:50;;;;;;;;;;;13.10;99.90;;;;;;5140158;27;19916;-59
2023/03/29 08:37:16;;;;;;;;;;;13.10;99.90;;;;;;5140164;27;20384;-59
2023/03/29 08:39:42;;;;;;;;;;;13.30;99.90;;;;;;5140020;27;19912;-59
2023/03/29 08:42:07;;;;;;;;;;;13.30;99.90;;;;;;5139760;27;19915;-59
2023/03/29 08:44:51;;;;;;;;;;;13.30;99.90;;;;;;5140007;27;19958;-59
2023/03/29 08:47:20;;;;;;;;;;;13.40;99.90;;;;;;5140392;27;19962;-59
2023/03/29 08:49:47;;;;;;;;;;;13.60;99.90;;;;;;5139795;27;20010;-59
2023/03/29 08:52:30;;;;;;;;;;;13.50;99.90;;;;;;5139734;27;19907;-59
2023/03/29 08:54:56;;;;;;;;;;;13.50;99.90;;;;;;5139020;27;19972;-59
2023/03/29 08:57:25;;;;;;;;;;;13.60;99.90;;;;;;5139115;27;19928;-59
2023/03/29 08:59:52;;;;;;;;;;;13.80;99.90;;;;;;5139882;27;20010;-59
2023/03/29 09:02:21;;;;;;;;;;;13.70;99.90;;;;;;5139325;27;19939;-59
2023/03/29 09:04:47;;;;;;;;;;;13.70;99.90;;;;;;5139466;27;19907;-59
2023/03/29 09:07:13;;;;;;;;;;;13.70;99.90;;;;;;5139363;27;19908;-59
2023/03/29 09:09:41;;;;;;;;;;;13.80;99.90;;;;;;5136937;27;19915;-59
2023/03/29 09:12:24;;;;;;;;;;;13.70;99.90;;;;;;5138104;27;19992;-59
2023/03/29 09:14:56;;;;;;;;;;;13.70;99.90;;;;;;5130984;27;19935;-59
2023/03/29 09:17:30;;;;;;;;;;;13.80;99.90;;;;;;5118700;28;19966;-59
2023/03/29 09:20:06;;;;;;;;;;;13.80;99.90;;;;;;5118385;28;19961;-59
2023/03/29 09:22:35;;;;;;;;;;;14.00;99.90;;;;;;5118368;28;19918;-59
2023/03/29 09:25:20;;;;;;;;;;;14.10;99.90;;;;;;5118704;28;19915;-59
2023/03/29 09:27:55;;;;;;;;;;;14.10;99.90;;;;;;5077817;28;19920;-59
2023/03/29 09:30:33;;;;;;;;;;;14.10;99.90;;;;;;5077778;28;20512;-59
2023/03/29 09:33:12;;;;;;;;;;;14.20;99.90;;;;;;5077725;28;19991;-59
2023/03/29 09:35:42;;;;;;;;;;;14.30;99.90;;;;;;5077735;28;19974;-59
2023/03/29 09:38:12;;;;;;;;;;;14.40;99.90;;;;;;5077635;28;19909;-59
2023/03/29 09:40:45;;;;;;;;;;;14.30;99.90;;;;;;5076508;28;19919;-59
2023/03/29 09:43:16;;;;;;;;;;;14.30;99.90;;;;;;5076751;28;19915;-59
2023/03/29 09:45:42;;;;;;;;;;;14.40;99.90;;;;;;5077033;28;20292;-59
2023/03/29 09:48:11;;;;;;;;;;;14.50;99.90;;;;;;5077975;28;19909;-59
2023/03/29 09:50:39;;;;;;;;;;;14.50;99.90;;;;;;5077733;28;19946;-59
2023/03/29 09:53:06;;;;;;;;;;;14.70;99.90;;;;;;5078398;28;19991;-59
2023/03/29 09:55:32;;;;;;;;;;;14.60;99.90;;;;;;5077622;28;20310;-59
2023/03/29 09:58:09;;;;;;;;;;;14.70;99.90;;;;;;5077388;28;20324;-59
2023/03/29 10:00:35;;;;;;;;;;;14.70;99.90;;;;;;5077330;28;19917;-59
2023/03/29 10:03:01;;;;;;;;;;;14.60;99.90;;;;;;5077293;28;19920;-59
2023/03/29 10:05:29;;;;;;;;;;;14.60;99.90;;;;;;5078064;28;19930;-59
2023/03/29 10:07:57;;;;;;;;;;;14.60;99.90;;;;;;5079432;28;19917;-59
2023/03/29 10:10:29;;;;;;;;;;;14.60;99.90;;;;;;5081622;28;19915;-59
2023/03/29 10:12:59;;;;;;;;;;;14.60;99.90;;;;;;5081154;28;19920;-59
2023/03/29 10:15:28;;;;;;;;;;;14.60;99.90;;;;;;5081174;28;19908;-59
2023/03/29 10:18:04;;;;;;;;;;;14.70;99.90;;;;;;5081387;28;19908;-59
2023/03/29 10:20:33;;;;;;;;;;;14.70;99.90;;;;;;5081456;28;19920;-59
2023/03/29 10:22:59;;;;;;;;;;;14.80;99.90;;;;;;5081159;28;20027;-59
2023/03/29 10:25:31;;;;;;;;;;;14.80;99.90;;;;;;5082427;28;19970;-59
2023/03/29 10:28:03;;;;;;;;;;;14.90;99.90;;;;;;5121689;28;19918;-59
2023/03/29 10:30:31;;;;;;;;;;;14.90;99.90;;;;;;5122005;28;20272;-59
2023/03/29 10:32:58;;;;;;;;;;;14.90;99.90;;;;;;5121863;28;19968;-59
2023/03/29 10:35:28;;;;;;;;;;;14.80;99.90;;;;;;5121914;28;19986;-59
2023/03/29 10:37:56;;;;;;;;;;;15.10;99.90;;;;;;5121744;28;19991;-59
2023/03/29 10:40:27;;;;;;;;;;;15.20;99.90;;;;;;5122157;28;20272;-59
2023/03/29 10:42:56;;;;;;;;;;;15.00;99.90;;;;;;5121442;28;19915;-59
2023/03/29 10:45:34;;;;;;;;;;;14.90;99.90;;;;;;5103188;28;19911;-59
2023/03/29 10:48:00;;;;;;;;;;;15.00;99.90;;;;;;5121629;28;19908;-59
2023/03/29 10:50:32;;;;;;;;;;;15.10;99.90;;;;;;5121699;28;19908;-59
2023/03/29 10:52:57;;;;;;;;;;;15.30;99.90;;;;;;5121568;28;19908;-59
2023/03/29 10:55:29;;;;;;;;;;;15.00;99.90;;;;;;5121112;28;19908;-59
2023/03/29 10:58:00;;;;;;;;;;;15.00;99.90;;;;;;5121654;28;20367;-58
2023/03/29 11:00:45;;;;;;;;;;;15.10;99.90;;;;;;5121546;28;19918;-59
2023/03/29 11:03:11;;;;;;;;;;;15.20;99.90;;;;;;5121105;28;20365;-59
2023/03/29 11:05:49;;;;;;;;;;;15.30;99.90;;;;;;5121154;28;19951;-59
2023/03/29 11:08:14;;;;;;;;;;;15.40;99.90;;;;;;5102702;28;19907;-59
2023/03/29 11:10:46;;;;;;;;;;;15.30;99.90;;;;;;5120820;28;20003;-59
2023/03/29 11:13:12;;;;;;;;;;;15.30;99.90;;;;;;5121219;28;19934;-59
2023/03/29 11:15:37;;;;;;;;;;;15.10;99.90;;;;;;5120764;28;19953;-59
2023/03/29 11:18:12;;;;;;;;;;;15.10;99.90;;;;;;5120787;28;19947;-59
2023/03/29 11:20:43;;;;;;;;;;;15.20;99.90;;;;;;5120139;28;20347;-59
2023/03/29 11:23:32;;;;;;;;;;;15.30;99.90;;;;;;5121047;28;19908;-59
2023/03/29 11:26:04;;;;;;;;;;;15.20;99.90;;;;;;5106856;28;19938;-59
2023/03/29 11:28:30;;;;;;;;;;;15.00;99.90;;;;;;5120697;28;19911;-59
2023/03/29 11:31:08;;;;;;;;;;;14.90;99.90;;;;;;5120296;28;19908;-59
2023/03/29 11:33:47;;;;;;;;;;;15.10;99.90;;;;;;5120525;28;19973;-59
2023/03/29 11:36:16;;;;;;;;;;;15.00;99.90;;;;;;5120528;28;19914;-58
2023/03/29 11:38:49;;;;;;;;;;;15.10;99.90;;;;;;5119393;27;19915;-59
2023/03/29 11:41:20;;;;;;;;;;;15.00;99.90;;;;;;5119782;28;19912;-59
2023/03/29 11:43:51;;;;;;;;;;;15.10;99.90;;;;;;5124284;27;19960;-59
2023/03/29 11:46:17;;;;;;;;;;;15.20;99.90;;;;;;5141161;27;19912;-59
2023/03/29 11:48:46;;;;;;;;;;;15.40;99.90;;;;;;5140715;27;19914;-59
2023/03/29 11:51:18;;;;;;;;;;;15.70;99.90;;;;;;5141048;27;19923;-59
2023/03/29 11:54:03;;;;;;;;;;;15.90;99.90;;;;;;5140604;27;20003;-59
2023/03/29 11:56:35;;;;;;;;;;;15.70;99.90;;;;;;5125498;27;19912;-59
2023/03/29 11:59:04;;;;;;;;;;;15.50;99.90;;;;;;5139790;27;20397;-59
2023/03/29 12:01:29;;;;;;;;;;;15.50;99.90;;;;;;5138815;27;20380;-59
2023/03/29 12:03:58;;;;;;;;;;;15.40;99.90;;;;;;5133473;27;19925;-59
2023/03/29 12:06:36;;;;;;;;;;;15.50;99.90;;;;;;5119434;28;19911;-59
2023/03/29 12:09:04;;;;;;;;;;;15.60;99.90;;;;;;5119963;28;19908;-59
2023/03/29 12:11:30;;;;;;;;;;;15.80;99.90;;;;;;5119802;28;19950;-59
2023/03/29 12:13:57;;;;;;;;;;;15.90;99.90;;;;;;5119695;28;19908;-59
2023/03/29 12:16:30;;;;;;;;;;;15.80;99.90;;;;;;5119891;28;19915;-59
2023/03/29 12:18:59;;;;;;;;;;;15.70;99.90;;;;;;5119571;28;19907;-59
2023/03/29 12:21:27;;;;;;;;;;;15.50;99.90;;;;;;5119786;28;19914;-59
2023/03/29 12:23:53;;;;;;;;;;;15.40;99.90;;;;;;5118408;28;19908;-59
2023/03/29 12:26:39;;;;;;;;;;;15.30;99.90;;;;;;5118158;28;20356;-59
2023/03/29 12:29:08;;;;;;;;;;;15.40;99.90;;;;;;5119189;28;19977;-59
2023/03/29 12:31:52;;;;;;;;;;;15.40;99.90;;;;;;5119149;28;19908;-59
2023/03/29 12:34:32;;;;;;;;;;;15.40;99.90;;;;;;5118254;28;19915;-59
2023/03/29 12:37:09;;;;;;;;;;;15.50;99.90;;;;;;5119335;28;19908;-59
2023/03/29 12:39:35;;;;;;;;;;;15.80;99.90;;;;;;5119568;28;19912;-59
2023/03/29 12:42:20;;;;;;;;;;;15.70;99.90;;;;;;5124200;27;20595;-59
2023/03/29 12:44:50;;;;;;;;;;;15.70;99.90;;;;;;5118210;28;19930;-59
2023/03/29 12:47:22;;;;;;;;;;;15.50;99.90;;;;;;5135212;27;19912;-59
2023/03/29 12:49:51;;;;;;;;;;;15.20;99.90;;;;;;5139746;27;19907;-59
2023/03/29 12:52:31;;;;;;;;;;;15.30;99.90;;;;;;5139333;27;19911;-59
2023/03/29 12:55:15;;;;;;;;;;;15.20;99.90;;;;;;5139604;27;19907;-59
2023/03/29 12:57:55;;;;;;;;;;;15.00;99.90;;;;;;5139359;27;20006;-59
2023/03/29 13:00:49;;;;;;;;;;;14.90;99.90;;;;;;5138916;27;19915;-59
2023/03/29 13:03:27;;;;;;;;;;;15.00;99.90;;;;;;5136174;27;19952;-59
2023/03/29 13:06:03;;;;;;;;;;;15.10;99.90;;;;;;5139804;27;19908;-59
2023/03/29 13:08:43;;;;;;;;;;;15.20;99.90;;;;;;5138056;27;20382;-59
2023/03/29 13:11:23;;;;;;;;;;;15.30;99.90;;;;;;5138217;27;19911;-59
2023/03/29 13:13:50;;;;;;;;;;;15.60;99.90;;;;;;5136253;27;19912;-59
2023/03/29 13:16:17;;;;;;;;;;;15.80;99.90;;;;;;5139221;27;20354;-58
2023/03/29 13:19:01;;;;;;;;;;;16.10;99.90;;;;;;5139286;27;19949;-59
2023/03/29 13:21:45;;;;;;;;;;;15.90;99.90;;;;;;5139525;27;19907;-59
2023/03/29 13:24:30;;;;;;;;;;;15.60;99.90;;;;;;5139133;27;19908;-59
2023/03/29 13:27:04;;;;;;;;;;;15.50;99.90;;;;;;5138959;27;19923;-59
2023/03/29 13:29:42;;;;;;;;;;;15.60;99.90;;;;;;5139559;27;19990;-60
2023/03/29 13:32:10;;;;;;;;;;;15.60;99.90;;;;;;5139228;27;19915;-60
2023/03/29 13:34:42;;;;;;;;;;;15.50;99.90;;;;;;5137237;27;20255;-60
2023/03/29 13:37:08;;;;;;;;;;;15.40;99.90;;;;;;5137816;27;19914;-60
2023/03/29 13:39:39;;;;;;;;;;;15.20;99.90;;;;;;5138055;27;20361;-60
2023/03/29 13:42:25;;;;;;;;;;;15.30;99.90;;;;;;5138043;27;20381;-60
2023/03/29 13:44:52;;;;;;;;;;;15.10;99.90;;;;;;5120769;27;19915;-60
2023/03/29 13:47:18;;;;;;;;;;;14.90;99.90;;;;;;5138643;27;19952;-60
2023/03/29 13:49:48;;;;;;;;;;;14.90;99.90;;;;;;5138995;28;19912;-60
2023/03/29 13:52:17;;;;;;;;;;;14.90;99.90;;;;;;5138737;28;19908;-60
2023/03/29 13:54:43;;;;;;;;;;;14.90;99.90;;;;;;5139003;28;19907;-60
2023/03/29 13:57:17;;;;;;;;;;;14.90;99.90;;;;;;5138772;28;19907;-60
2023/03/29 13:59:59;;;;;;;;;;;15.00;99.90;;;;;;5138758;28;20014;-60
2023/03/29 14:02:34;;;;;;;;;;;15.00;99.90;;;;;;5138645;28;19908;-60
2023/03/29 14:05:01;;;;;;;;;;;14.90;99.90;;;;;;5138837;28;19913;-60
2023/03/29 14:07:27;;;;;;;;;;;14.80;99.90;;;;;;5138828;28;19914;-60
2023/03/29 14:09:54;;;;;;;;;;;14.90;99.90;;;;;;5138597;28;19950;-60
2023/03/29 14:12:20;;;;;;;;;;;14.70;99.90;;;;;;5138589;28;19955;-60
2023/03/29 14:14:46;;;;;;;;;;;14.60;99.90;;;;;;5138288;28;19907;-60
2023/03/29 14:17:20;;;;;;;;;;;14.60;99.90;;;;;;5138488;28;19980;-60
2023/03/29 14:19:46;;;;;;;;;;;14.50;99.90;;;;;;5138920;28;20315;-60
2023/03/29 14:22:17;;;;;;;;;;;14.50;99.90;;;;;;5138547;28;19911;-60
2023/03/29 14:24:48;;;;;;;;;;;14.50;99.90;;;;;;5138436;28;19908;-60
2023/03/29 14:27:14;;;;;;;;;;;14.60;99.90;;;;;;5138834;28;19940;-60